createdAt,value
2022-11-05T16:47:04.344Z,1.10
2022-11-05T16:49:31.106Z,1.63
2022-11-05T16:51:59.992Z,1.52
2022-11-05T16:54:26.756Z,1.95
2022-11-05T16:56:53.672Z,1.60
2022-11-05T16:59:20.418Z,1.17
2022-11-05T17:01:50.448Z,2.83
2022-11-05T17:04:21.377Z,4.18
2022-11-05T17:06:49.885Z,6.45
2022-11-05T17:09:17.069Z,4.50
2022-11-05T17:11:43.830Z,6.35
2022-11-05T17:14:14.122Z,3.85
2022-11-05T17:16:41.354Z,5.53
2022-11-05T17:19:15.288Z,6.47
2022-11-05T17:21:42.340Z,5.88
2022-11-05T17:24:09.268Z,4.53
2022-11-05T17:26:36.173Z,4.10
2022-11-05T17:29:03.031Z,4.25
2022-11-05T17:31:30.705Z,4.22
2022-11-05T17:33:58.450Z,3.67
2022-11-05T17:36:25.883Z,4.45
2022-11-05T17:38:53.812Z,3.28
2022-11-05T17:41:22.693Z,3.30
2022-11-05T17:43:54.649Z,3.97
2022-11-05T17:46:22.241Z,3.38
2022-11-05T17:48:49.372Z,2.85
2022-11-05T17:51:18.494Z,3.58
2022-11-05T17:53:47.264Z,2.85
2022-11-05T17:56:24.526Z,2.78
2022-11-05T17:58:56.091Z,2.95
2022-11-05T18:01:31.775Z,2.90
2022-11-05T18:04:02.436Z,3.00
2022-11-05T18:06:33.798Z,2.55
2022-11-05T18:09:00.544Z,2.80
2022-11-05T18:11:27.306Z,2.83
2022-11-05T18:13:54.036Z,2.65
2022-11-05T18:16:20.813Z,2.63
2022-11-05T18:18:49.295Z,2.72
2022-11-05T18:21:16.595Z,2.67
2022-11-05T18:23:43.347Z,2.38
2022-11-05T18:26:11.785Z,2.50
2022-11-05T18:28:38.674Z,2.30
2022-11-05T18:31:15.279Z,2.63
2022-11-05T18:33:44.715Z,2.47
2022-11-05T18:36:22.900Z,2.50
2022-11-05T18:38:50.276Z,2.20
2022-11-05T18:41:18.022Z,2.20
2022-11-05T18:43:44.779Z,2.40
2022-11-05T18:46:29.449Z,1.90
2022-11-05T18:49:00.079Z,2.17
2022-11-05T18:51:27.421Z,2.30
2022-11-05T18:53:54.903Z,2.42
2022-11-05T18:56:21.840Z,2.33
2022-11-05T18:58:49.728Z,2.08
2022-11-05T19:01:20.016Z,1.92
2022-11-05T19:03:47.580Z,2.22
2022-11-05T19:06:15.019Z,1.80
2022-11-05T19:08:42.038Z,1.80
2022-11-05T19:11:11.211Z,2.15
2022-11-05T19:13:38.509Z,1.80
2022-11-05T19:16:10.305Z,1.75
2022-11-05T19:18:37.767Z,2.20
2022-11-05T19:21:19.333Z,1.80
2022-11-05T19:23:46.635Z,1.80
2022-11-05T19:26:28.148Z,1.90
2022-11-05T19:28:57.974Z,1.70
2022-11-05T19:31:25.205Z,1.70
2022-11-05T19:33:52.539Z,1.73
2022-11-05T19:36:21.016Z,1.98
2022-11-05T19:38:52.318Z,1.75
2022-11-05T19:41:19.389Z,1.80
